THY4902 LTFJ-LTCM
Flight info
| Callsign | THY4902 |
|---|---|
| Flight time | N/A |
| Altitude | 310 |
| Route | BKZ UN644 INB UW90 SUNUM |
| Aircraft | A321/M-SDE3/L |
Departure
| Time | N/A |
|---|---|
| Airport | Istanbul Sabiha Gökçen International Airport (LTFJ) |
Arrival
| Time | 2026-04-21 11:12 |
|---|---|
| Airport | Sinop Airport (LTCM) |
| Time | Latitude | Longitude | Altitude | Speed | Heading |
|---|---|---|---|---|---|
| 2026-04-21 10:26 | 41.38117 | 30.45555 | 28670 ft | 486 kts | 73° |
| 2026-04-21 10:26 | 41.38324 | 30.46716 | 28784 ft | 485 kts | 73° |
| 2026-04-21 10:27 | 41.39399 | 30.52758 | 29350 ft | 484 kts | 72° |
| 2026-04-21 10:28 | 41.39919 | 30.55631 | 28917 ft | 481 kts | 76° |
| 2026-04-21 10:28 | 41.40695 | 30.59891 | 29656 ft | 469 kts | 76° |
| 2026-04-21 10:28 | 41.41414 | 30.64009 | 30556 ft | 454 kts | 77° |
| 2026-04-21 10:28 | 41.42121 | 30.68088 | 31209 ft | 446 kts | 77° |
| 2026-04-21 10:29 | 41.42814 | 30.72078 | 31535 ft | 445 kts | 77° |
| 2026-04-21 10:29 | 41.43547 | 30.76057 | 31754 ft | 446 kts | 76° |
| 2026-04-21 10:29 | 41.44323 | 30.80052 | 31996 ft | 446 kts | 75° |
| 2026-04-21 10:29 | 41.45106 | 30.84040 | 32267 ft | 446 kts | 75° |
| 2026-04-21 10:30 | 41.45881 | 30.88002 | 32540 ft | 445 kts | 76° |
| 2026-04-21 10:30 | 41.46659 | 30.91998 | 32810 ft | 444 kts | 76° |
| 2026-04-21 10:30 | 41.47425 | 30.95954 | 33060 ft | 444 kts | 76° |
| 2026-04-21 10:30 | 41.48197 | 30.99955 | 33294 ft | 444 kts | 76° |
| 2026-04-21 10:31 | 41.48952 | 31.03879 | 33491 ft | 444 kts | 76° |
| 2026-04-21 10:31 | 41.49726 | 31.07907 | 33668 ft | 445 kts | 76° |
| 2026-04-21 10:31 | 41.50492 | 31.11905 | 33837 ft | 446 kts | 76° |
| 2026-04-21 10:31 | 41.51256 | 31.15903 | 34024 ft | 447 kts | 76° |
| 2026-04-21 10:32 | 41.52024 | 31.19922 | 34572 ft | 447 kts | 76° |
| 2026-04-21 10:32 | 41.52782 | 31.23900 | 35032 ft | 448 kts | 76° |
| 2026-04-21 10:32 | 41.53547 | 31.27926 | 35012 ft | 448 kts | 76° |
| 2026-04-21 10:33 | 41.55074 | 31.35992 | 35012 ft | 448 kts | 76° |
| 2026-04-21 10:33 | 41.56584 | 31.44050 | 35011 ft | 448 kts | 76° |
| 2026-04-21 10:34 | 41.58083 | 31.52076 | 35011 ft | 448 kts | 76° |
| 2026-04-21 10:34 | 41.59588 | 31.60157 | 35012 ft | 448 kts | 76° |
| 2026-04-21 10:35 | 41.61087 | 31.68235 | 35014 ft | 448 kts | 76° |
| 2026-04-21 10:35 | 41.62573 | 31.76302 | 35016 ft | 448 kts | 76° |
| 2026-04-21 10:36 | 41.64050 | 31.84335 | 35018 ft | 448 kts | 76° |
| 2026-04-21 10:36 | 41.65527 | 31.92396 | 35018 ft | 448 kts | 76° |
| 2026-04-21 10:37 | 41.67007 | 32.00503 | 35017 ft | 448 kts | 76° |
| 2026-04-21 10:37 | 41.68477 | 32.08580 | 35015 ft | 448 kts | 76° |
| 2026-04-21 10:38 | 41.69941 | 32.16653 | 35013 ft | 448 kts | 76° |
| 2026-04-21 10:38 | 41.71404 | 32.24762 | 35012 ft | 448 kts | 76° |
| 2026-04-21 10:39 | 41.72843 | 32.32887 | 35011 ft | 448 kts | 77° |
| 2026-04-21 10:39 | 41.74192 | 32.40978 | 35012 ft | 448 kts | 77° |
| 2026-04-21 10:40 | 41.75549 | 32.49149 | 35013 ft | 448 kts | 77° |
| 2026-04-21 10:40 | 41.76893 | 32.57232 | 35015 ft | 448 kts | 77° |
| 2026-04-21 10:41 | 41.78247 | 32.65407 | 34622 ft | 448 kts | 78° |
| 2026-04-21 10:41 | 41.78918 | 32.69474 | 33575 ft | 452 kts | 78° |
| 2026-04-21 10:41 | 41.79585 | 32.73535 | 32608 ft | 460 kts | 78° |
| 2026-04-21 10:41 | 41.80279 | 32.77762 | 31619 ft | 467 kts | 78° |
| 2026-04-21 10:42 | 41.80975 | 32.82008 | 30757 ft | 469 kts | 78° |
| 2026-04-21 10:42 | 41.81667 | 32.86237 | 29960 ft | 470 kts | 78° |
| 2026-04-21 10:42 | 41.82368 | 32.90521 | 29147 ft | 471 kts | 78° |
| 2026-04-21 10:42 | 41.83060 | 32.94753 | 28312 ft | 472 kts | 78° |
| 2026-04-21 10:43 | 41.83765 | 32.99090 | 27432 ft | 473 kts | 78° |
| 2026-04-21 10:43 | 41.84454 | 33.03340 | 26550 ft | 475 kts | 78° |
| 2026-04-21 10:43 | 41.85145 | 33.07632 | 25739 ft | 474 kts | 78° |
| 2026-04-21 10:43 | 41.85833 | 33.11937 | 25187 ft | 467 kts | 78° |
| 2026-04-21 10:44 | 41.86510 | 33.16176 | 24327 ft | 469 kts | 78° |
| 2026-04-21 10:44 | 41.87199 | 33.20487 | 23209 ft | 475 kts | 78° |
| 2026-04-21 10:44 | 41.87877 | 33.24733 | 22595 ft | 469 kts | 78° |
| 2026-04-21 10:44 | 41.88553 | 33.28975 | 22040 ft | 463 kts | 78° |
| 2026-04-21 10:45 | 41.89225 | 33.33194 | 21394 ft | 458 kts | 78° |
| 2026-04-21 10:45 | 41.89881 | 33.37331 | 20739 ft | 454 kts | 78° |
| 2026-04-21 10:45 | 41.90533 | 33.41443 | 20089 ft | 450 kts | 78° |
| 2026-04-21 10:45 | 41.91177 | 33.45516 | 19450 ft | 446 kts | 78° |
| 2026-04-21 10:46 | 41.91816 | 33.49562 | 18807 ft | 442 kts | 78° |
| 2026-04-21 10:46 | 41.92442 | 33.53531 | 18168 ft | 438 kts | 78° |
| 2026-04-21 10:46 | 41.93066 | 33.57492 | 17530 ft | 434 kts | 78° |
| 2026-04-21 10:46 | 41.93684 | 33.61435 | 16901 ft | 430 kts | 78° |
| 2026-04-21 10:47 | 41.94288 | 33.65309 | 16275 ft | 426 kts | 78° |
| 2026-04-21 10:47 | 41.94861 | 33.69182 | 15644 ft | 422 kts | 81° |
| 2026-04-21 10:47 | 41.95238 | 33.73048 | 15177 ft | 414 kts | 85° |
| 2026-04-21 10:47 | 41.95468 | 33.76829 | 15015 ft | 399 kts | 86° |
| 2026-04-21 10:48 | 41.95673 | 33.80494 | 15007 ft | 383 kts | 86° |
| 2026-04-21 10:48 | 41.95864 | 33.83976 | 14732 ft | 376 kts | 86° |
| 2026-04-21 10:48 | 41.96056 | 33.87461 | 14095 ft | 377 kts | 86° |
| 2026-04-21 10:48 | 41.96248 | 33.90940 | 13542 ft | 376 kts | 86° |
| 2026-04-21 10:49 | 41.96441 | 33.94423 | 13045 ft | 373 kts | 86° |
| 2026-04-21 10:49 | 41.96632 | 33.97884 | 12543 ft | 370 kts | 86° |
| 2026-04-21 10:49 | 41.96822 | 34.01325 | 12036 ft | 367 kts | 86° |
| 2026-04-21 10:49 | 41.97008 | 34.04728 | 11533 ft | 364 kts | 86° |
| 2026-04-21 10:50 | 41.97190 | 34.08063 | 11039 ft | 362 kts | 86° |
| 2026-04-21 10:50 | 41.97373 | 34.11434 | 10551 ft | 359 kts | 86° |
| 2026-04-21 10:50 | 41.97550 | 34.14713 | 10329 ft | 348 kts | 86° |
| 2026-04-21 10:50 | 41.97721 | 34.17884 | 10126 ft | 337 kts | 86° |
| 2026-04-21 10:51 | 41.97886 | 34.20967 | 9955 ft | 325 kts | 86° |
| 2026-04-21 10:51 | 41.98045 | 34.23946 | 9927 ft | 309 kts | 86° |
| 2026-04-21 10:51 | 41.98194 | 34.26741 | 9919 ft | 294 kts | 85° |
| 2026-04-21 10:51 | 41.98336 | 34.29429 | 9923 ft | 289 kts | 85° |
| 2026-04-21 10:52 | 41.98478 | 34.32118 | 9924 ft | 289 kts | 85° |
| 2026-04-21 10:52 | 41.98618 | 34.34791 | 9919 ft | 284 kts | 85° |
| 2026-04-21 10:52 | 41.98753 | 34.37380 | 9908 ft | 269 kts | 85° |
| 2026-04-21 10:52 | 41.98881 | 34.39840 | 9722 ft | 261 kts | 85° |
| 2026-04-21 10:53 | 41.99005 | 34.42236 | 9303 ft | 264 kts | 86° |
| 2026-04-21 10:53 | 41.99134 | 34.44749 | 8826 ft | 267 kts | 86° |
| 2026-04-21 10:53 | 41.99259 | 34.47183 | 8661 ft | 258 kts | 86° |
| 2026-04-21 10:53 | 41.99380 | 34.49547 | 8486 ft | 249 kts | 85° |
| 2026-04-21 10:54 | 41.99495 | 34.51809 | 8314 ft | 240 kts | 85° |
| 2026-04-21 10:54 | 41.99607 | 34.54028 | 8090 ft | 234 kts | 85° |
| 2026-04-21 10:54 | 41.99717 | 34.56184 | 7777 ft | 233 kts | 85° |
| 2026-04-21 10:54 | 41.99825 | 34.58345 | 7504 ft | 228 kts | 86° |
| 2026-04-21 10:55 | 41.99928 | 34.60393 | 7360 ft | 215 kts | 86° |
| 2026-04-21 10:55 | 42.00026 | 34.62349 | 7150 ft | 204 kts | 86° |
| 2026-04-21 10:55 | 42.00118 | 34.64197 | 6940 ft | 194 kts | 85° |
| 2026-04-21 10:55 | 42.00206 | 34.65962 | 6727 ft | 184 kts | 86° |
| 2026-04-21 10:56 | 42.00289 | 34.67639 | 6454 ft | 178 kts | 86° |
| 2026-04-21 10:56 | 42.00370 | 34.69284 | 6104 ft | 176 kts | 86° |
| 2026-04-21 10:56 | 42.00451 | 34.70926 | 5740 ft | 176 kts | 86° |
| 2026-04-21 10:56 | 42.00531 | 34.72549 | 5383 ft | 175 kts | 86° |
| 2026-04-21 10:57 | 42.00610 | 34.74164 | 5029 ft | 174 kts | 86° |
| 2026-04-21 10:57 | 42.00689 | 34.75788 | 4673 ft | 173 kts | 86° |
| 2026-04-21 10:57 | 42.00767 | 34.77390 | 4322 ft | 172 kts | 86° |
| 2026-04-21 10:57 | 42.00843 | 34.78969 | 3976 ft | 171 kts | 86° |
| 2026-04-21 10:58 | 42.00920 | 34.80568 | 3627 ft | 170 kts | 86° |
| 2026-04-21 10:58 | 42.00995 | 34.82141 | 3284 ft | 169 kts | 86° |
| 2026-04-21 10:58 | 42.01070 | 34.83721 | 2978 ft | 166 kts | 86° |
| 2026-04-21 10:58 | 42.01144 | 34.85267 | 2939 ft | 168 kts | 86° |
| 2026-04-21 10:59 | 42.01221 | 34.86839 | 2931 ft | 169 kts | 86° |
| 2026-04-21 10:59 | 42.01303 | 34.88419 | 2928 ft | 169 kts | 86° |
| 2026-04-21 10:59 | 42.01384 | 34.89987 | 2926 ft | 169 kts | 86° |
| 2026-04-21 10:59 | 42.01466 | 34.91552 | 2925 ft | 169 kts | 86° |
| 2026-04-21 11:00 | 42.01548 | 34.93142 | 2925 ft | 169 kts | 86° |
| 2026-04-21 11:00 | 42.01629 | 34.94701 | 2924 ft | 169 kts | 86° |
| 2026-04-21 11:00 | 42.01708 | 34.96273 | 2924 ft | 169 kts | 86° |
| 2026-04-21 11:00 | 42.01788 | 34.97850 | 2924 ft | 169 kts | 86° |
| 2026-04-21 11:01 | 42.01868 | 34.99426 | 2924 ft | 169 kts | 86° |
| 2026-04-21 11:01 | 42.01948 | 35.01014 | 2924 ft | 169 kts | 86° |
| 2026-04-21 11:01 | 42.02027 | 35.02584 | 2924 ft | 169 kts | 86° |
| 2026-04-21 11:02 | 42.02188 | 35.05726 | 2924 ft | 169 kts | 84° |
| 2026-04-21 11:02 | 42.02418 | 35.07276 | 2926 ft | 169 kts | 72° |
| 2026-04-21 11:02 | 42.02885 | 35.08724 | 2926 ft | 169 kts | 60° |
| 2026-04-21 11:02 | 42.03534 | 35.10033 | 2929 ft | 169 kts | 54° |
| 2026-04-21 11:03 | 42.04223 | 35.11303 | 2926 ft | 169 kts | 53° |
| 2026-04-21 11:03 | 42.04921 | 35.12584 | 2925 ft | 169 kts | 54° |
| 2026-04-21 11:03 | 42.05606 | 35.13852 | 2925 ft | 169 kts | 54° |
| 2026-04-21 11:03 | 42.06319 | 35.15120 | 2920 ft | 169 kts | 45° |
| 2026-04-21 11:04 | 42.07289 | 35.15960 | 2931 ft | 168 kts | 24° |
| 2026-04-21 11:04 | 42.08380 | 35.16559 | 2927 ft | 169 kts | 20° |
| 2026-04-21 11:04 | 42.09491 | 35.17115 | 2926 ft | 169 kts | 20° |
| 2026-04-21 11:04 | 42.10586 | 35.17653 | 2925 ft | 169 kts | 20° |
| 2026-04-21 11:05 | 42.11699 | 35.18193 | 2925 ft | 169 kts | 20° |
| 2026-04-21 11:05 | 42.12798 | 35.18724 | 2925 ft | 169 kts | 20° |
| 2026-04-21 11:05 | 42.13871 | 35.19390 | 2918 ft | 168 kts | 34° |
| 2026-04-21 11:05 | 42.14788 | 35.20380 | 2928 ft | 169 kts | 41° |
| 2026-04-21 11:06 | 42.15659 | 35.21436 | 2927 ft | 169 kts | 42° |
| 2026-04-21 11:06 | 42.15841 | 35.21661 | 2926 ft | 169 kts | 42° |
| 2026-04-21 11:06 | 42.16703 | 35.22742 | 2924 ft | 169 kts | 47° |
| 2026-04-21 11:06 | 42.17195 | 35.24133 | 2903 ft | 167 kts | 88° |
| 2026-04-21 11:07 | 42.16848 | 35.25577 | 2918 ft | 166 kts | 132° |
| 2026-04-21 11:07 | 42.15857 | 35.26284 | 2921 ft | 166 kts | 176° |
| 2026-04-21 11:07 | 42.14682 | 35.26189 | 2949 ft | 168 kts | 187° |
| 2026-04-21 11:07 | 42.13526 | 35.25929 | 2926 ft | 168 kts | 199° |
| 2026-04-21 11:08 | 42.12591 | 35.25043 | 2928 ft | 168 kts | 225° |
| 2026-04-21 11:08 | 42.11718 | 35.23992 | 2900 ft | 169 kts | 218° |
| 2026-04-21 11:08 | 42.10817 | 35.22974 | 2700 ft | 168 kts | 223° |
| 2026-04-21 11:08 | 42.10002 | 35.21843 | 2483 ft | 168 kts | 229° |
| 2026-04-21 11:09 | 42.09264 | 35.20642 | 2260 ft | 167 kts | 232° |
| 2026-04-21 11:09 | 42.08558 | 35.19391 | 2080 ft | 167 kts | 233° |
| 2026-04-21 11:09 | 42.07887 | 35.18171 | 1840 ft | 159 kts | 233° |
| 2026-04-21 11:09 | 42.07237 | 35.16986 | 1624 ft | 156 kts | 233° |
| 2026-04-21 11:10 | 42.06589 | 35.15811 | 1415 ft | 156 kts | 233° |
| 2026-04-21 11:10 | 42.05946 | 35.14644 | 1208 ft | 155 kts | 233° |
| 2026-04-21 11:10 | 42.05302 | 35.13478 | 1002 ft | 155 kts | 233° |
| 2026-04-21 11:10 | 42.04661 | 35.12313 | 796 ft | 154 kts | 233° |
| 2026-04-21 11:11 | 42.04025 | 35.11159 | 591 ft | 154 kts | 233° |
| 2026-04-21 11:11 | 42.03391 | 35.10006 | 388 ft | 154 kts | 233° |
| 2026-04-21 11:11 | 42.02748 | 35.08863 | 184 ft | 153 kts | 233° |
| 2026-04-21 11:11 | 42.02120 | 35.07703 | 26 ft | 151 kts | 233° |
| 2026-04-21 11:12 | 42.01715 | 35.06970 | 34 ft | 23 kts | 233° |
| 2026-04-21 11:12 | 42.01708 | 35.06959 | 34 ft | 0 kts | 233° |
| 2026-04-21 11:12 | 42.01707 | 35.06958 | 34 ft | 0 kts | 233° |
| 2026-04-21 11:12 | 42.01704 | 35.06950 | 34 ft | 0 kts | 248° |
| 2026-04-21 11:13 | 42.01702 | 35.06927 | 35 ft | 3 kts | 265° |
| 2026-04-21 11:13 | 42.01693 | 35.06915 | 35 ft | 2 kts | 149° |
| 2026-04-21 11:13 | 42.01705 | 35.06947 | 34 ft | 6 kts | 54° |
| 2026-04-21 11:13 | 42.01741 | 35.07017 | 34 ft | 11 kts | 54° |
| 2026-04-21 11:14 | 42.01793 | 35.07115 | 32 ft | 14 kts | 54° |
| 2026-04-21 11:14 | 42.01860 | 35.07235 | 31 ft | 17 kts | 51° |
| 2026-04-21 11:14 | 42.01939 | 35.07373 | 29 ft | 19 kts | 53° |
| 2026-04-21 11:14 | 42.02027 | 35.07528 | 27 ft | 19 kts | 53° |
| 2026-04-21 11:15 | 42.02076 | 35.07615 | 26 ft | 9 kts | 53° |
| 2026-04-21 11:15 | 42.02080 | 35.07712 | 25 ft | 13 kts | 126° |
| 2026-04-21 11:15 | 42.02007 | 35.07792 | 25 ft | 9 kts | 156° |
| 2026-04-21 11:15 | 42.01965 | 35.07786 | 25 ft | 6 kts | 192° |
| 2026-04-21 11:16 | 42.01923 | 35.07807 | 25 ft | 7 kts | 105° |
| 2026-04-21 11:16 | 42.01934 | 35.07859 | 25 ft | 0 kts | 70° |